Time;durP1;ratioP1;P1;durP2;ratioP2;P2;SDS_P1;SDS_P2;PMS_P1;PMS_P2;Temp;Humidity;BMP_temperature;BMP_pressure;BME280_temperature;BME280_humidity;BME280_pressure;Samples;Min_cycle;Max_cycle;Signal;HPM_P1;HPM_P2
2021/12/28 00:03:22;;;;;;;3.83;2.40;;;9.60;99.90;;;;;;10554533;22;20215;-80
2021/12/28 00:08:25;;;;;;;3.40;2.03;;;9.50;99.90;;;;;;10486917;28;20219;-80
2021/12/28 00:13:30;;;;;;;3.87;2.23;;;9.50;99.90;;;;;;10490670;28;20267;-80
2021/12/28 00:18:36;;;;;;;4.30;2.83;;;9.50;99.90;;;;;;10491991;28;20228;-79
2021/12/28 00:23:40;;;;;;;5.37;2.93;;;9.50;99.90;;;;;;10491120;28;20319;-80
2021/12/28 00:28:45;;;;;;;4.13;2.40;;;9.50;99.90;;;;;;10502763;28;20609;-77
2021/12/28 00:34:22;;;;;;;4.37;2.10;;;9.50;99.90;;;;;;10482043;28;20212;-79
2021/12/28 00:39:26;;;;;;;3.90;2.40;;;9.50;99.90;;;;;;10474964;28;20489;-81
2021/12/28 00:44:28;;;;;;;5.27;2.40;;;9.50;99.90;;;;;;10505587;28;20746;-80
2021/12/28 00:49:33;;;;;;;6.70;2.40;;;9.50;99.90;;;;;;10533277;28;20197;-80
2021/12/28 00:54:37;;;;;;;5.20;2.30;;;9.40;99.90;;;;;;10539986;28;20248;-80
2021/12/28 00:59:39;;;;;;;5.50;2.00;;;9.40;99.90;;;;;;10541035;28;20199;-81
2021/12/28 01:04:41;;;;;;;5.13;2.13;;;9.40;99.90;;;;;;10538012;28;20221;-80
2021/12/28 01:09:45;;;;;;;5.37;2.67;;;9.40;99.90;;;;;;10508621;28;20298;-81
2021/12/28 01:14:47;;;;;;;4.90;2.10;;;9.40;99.90;;;;;;10542011;28;20219;-80
2021/12/28 01:19:50;;;;;;;6.80;2.90;;;9.40;99.90;;;;;;10539575;28;20717;-81
2021/12/28 01:24:53;;;;;;;7.60;3.00;;;9.40;99.90;;;;;;10505969;28;20235;-80
2021/12/28 01:29:55;;;;;;;4.83;2.20;;;9.40;99.90;;;;;;10516889;28;20196;-79
2021/12/28 01:34:58;;;;;;;5.80;2.70;;;9.40;99.90;;;;;;10525835;28;20598;-81
2021/12/28 01:40:01;;;;;;;8.63;2.57;;;9.40;99.90;;;;;;10544446;28;20659;-79
2021/12/28 01:45:04;;;;;;;7.80;2.33;;;9.30;99.90;;;;;;10538014;28;20231;-80
2021/12/28 01:50:07;;;;;;;6.27;3.00;;;9.30;99.90;;;;;;10526039;28;20564;-81
2021/12/28 01:55:11;;;;;;;7.03;2.93;;;9.30;99.90;;;;;;10542698;28;20234;-80
2021/12/28 02:00:14;;;;;;;4.67;2.27;;;9.40;99.90;;;;;;10540819;28;20818;-81
2021/12/28 02:05:16;;;;;;;5.10;2.50;;;9.40;99.90;;;;;;10521948;28;20256;-82
2021/12/28 02:10:20;;;;;;;4.83;2.77;;;9.40;99.90;;;;;;10535029;28;20234;-79
2021/12/28 02:15:22;;;;;;;4.90;3.30;;;9.40;99.90;;;;;;10503309;28;20226;-80
2021/12/28 02:20:26;;;;;;;7.47;3.00;;;9.40;99.90;;;;;;10538098;28;20223;-80
2021/12/28 02:25:28;;;;;;;5.33;3.13;;;9.50;99.90;;;;;;10533508;28;20400;-81
2021/12/28 02:30:30;;;;;;;6.87;2.50;;;9.50;99.90;;;;;;10516497;28;20207;-81
2021/12/28 02:35:34;;;;;;;5.30;3.07;;;9.40;99.90;;;;;;10516945;28;20794;-81
2021/12/28 02:40:38;;;;;;;3.93;2.50;;;9.50;99.90;;;;;;10533509;28;20205;-79
2021/12/28 02:45:47;;;;;;;5.13;2.90;;;9.40;99.90;;;;;;10516245;28;20310;-80
2021/12/28 02:50:54;;;;;;;6.17;2.97;;;9.40;99.90;;;;;;10520799;28;20226;-80
2021/12/28 02:55:57;;;;;;;6.57;2.53;;;9.40;99.90;;;;;;10540673;28;20582;-81
2021/12/28 03:01:04;;;;;;;4.60;3.13;;;9.40;99.90;;;;;;10518671;28;20199;-81
2021/12/28 03:06:09;;;;;;;6.50;2.70;;;9.40;99.90;;;;;;10538113;28;20223;-79
2021/12/28 03:11:12;;;;;;;7.73;2.77;;;9.40;99.90;;;;;;10533254;28;20570;-80
2021/12/28 03:16:15;;;;;;;4.93;2.70;;;9.30;99.90;;;;;;10520005;28;20207;-79
2021/12/28 03:21:21;;;;;;;4.40;2.70;;;9.30;99.90;;;;;;10538873;28;20750;-81
2021/12/28 03:26:24;;;;;;;6.57;3.17;;;9.30;99.90;;;;;;10536530;28;20261;-81
2021/12/28 03:31:26;;;;;;;4.90;2.57;;;9.40;99.90;;;;;;10539085;28;20553;-79
2021/12/28 03:36:30;;;;;;;6.33;2.70;;;9.40;99.90;;;;;;10491460;28;20192;-78
2021/12/28 03:41:32;;;;;;;7.47;3.07;;;9.40;99.90;;;;;;10526944;28;20276;-79
2021/12/28 03:46:35;;;;;;;5.53;3.00;;;9.40;99.90;;;;;;10534565;28;20215;-79
2021/12/28 03:51:38;;;;;;;3.63;3.03;;;9.50;99.90;;;;;;10533149;28;20227;-78
2021/12/28 03:56:41;;;;;;;4.50;2.63;;;9.50;99.90;;;;;;10522168;28;20203;-79
2021/12/28 04:01:43;;;;;;;5.20;2.87;;;9.50;99.90;;;;;;10518067;28;20211;-79
2021/12/28 04:06:46;;;;;;;7.33;3.50;;;9.60;99.90;;;;;;10498090;28;20224;-79
2021/12/28 04:11:48;;;;;;;3.33;2.80;;;9.60;99.90;;;;;;10538552;28;20224;-79
2021/12/28 04:16:50;;;;;;;5.33;3.00;;;9.60;99.90;;;;;;10544347;28;21037;-79
2021/12/28 04:21:54;;;;;;;4.73;2.80;;;9.70;99.90;;;;;;10516104;28;20221;-78
2021/12/28 04:26:56;;;;;;;3.80;2.60;;;9.70;99.90;;;;;;10512305;28;20197;-79
2021/12/28 04:31:58;;;;;;;15.33;3.77;;;9.70;99.90;;;;;;10527935;28;20220;-80
2021/12/28 04:37:02;;;;;;;6.90;3.30;;;9.70;99.90;;;;;;10525836;28;20214;-79
2021/12/28 04:42:04;;;;;;;4.23;3.00;;;9.70;99.90;;;;;;10517508;28;20763;-80
2021/12/28 04:47:07;;;;;;;5.77;3.17;;;9.60;99.90;;;;;;10537567;28;20264;-79
2021/12/28 04:52:10;;;;;;;7.17;3.60;;;9.60;99.90;;;;;;10528402;28;20270;-78
2021/12/28 04:57:12;;;;;;;6.47;3.70;;;9.50;99.90;;;;;;10507111;28;20208;-79
2021/12/28 05:02:14;;;;;;;5.70;3.70;;;9.40;99.90;;;;;;10507768;28;20242;-79
2021/12/28 05:07:18;;;;;;;5.40;3.50;;;9.40;99.90;;;;;;10524243;28;20220;-78
2021/12/28 05:12:20;;;;;;;6.87;4.27;;;9.20;99.90;;;;;;10514859;28;20216;-78
2021/12/28 05:17:22;;;;;;;4.10;3.70;;;9.10;99.90;;;;;;10511979;28;20196;-79
2021/12/28 05:22:26;;;;;;;4.40;3.90;;;8.90;99.90;;;;;;10518101;28;20227;-77
2021/12/28 05:27:28;;;;;;;6.77;4.73;;;9.00;99.90;;;;;;10518443;28;20637;-77
2021/12/28 05:32:30;;;;;;;5.03;4.10;;;8.90;99.90;;;;;;10543328;28;20216;-78
2021/12/28 05:37:34;;;;;;;5.17;2.93;;;8.90;99.90;;;;;;10500629;28;20234;-78
2021/12/28 05:42:36;;;;;;;4.67;3.30;;;8.80;99.90;;;;;;10505841;28;20223;-79
2021/12/28 05:47:39;;;;;;;4.63;3.50;;;8.90;99.90;;;;;;10507790;28;20573;-78
2021/12/28 05:52:42;;;;;;;4.47;3.30;;;8.90;99.90;;;;;;10487007;28;20212;-79
2021/12/28 05:57:44;;;;;;;5.40;3.80;;;9.00;99.90;;;;;;10521039;28;20198;-78
2021/12/28 06:02:46;;;;;;;3.90;2.63;;;9.00;99.90;;;;;;10519553;22;20703;-78
2021/12/28 06:07:50;;;;;;;4.03;3.60;;;9.00;99.90;;;;;;10425842;28;20288;-79
2021/12/28 06:12:52;;;;;;;6.83;3.97;;;9.00;99.90;;;;;;10426709;28;20241;-79
2021/12/28 06:17:54;;;;;;;2.97;2.27;;;9.00;99.90;;;;;;10388579;28;20225;-79
2021/12/28 06:22:58;;;;;;;3.60;3.40;;;9.10;99.90;;;;;;10400186;28;20629;-79
2021/12/28 06:28:00;;;;;;;4.87;3.93;;;9.10;99.90;;;;;;10384573;28;20745;-79
2021/12/28 06:33:04;;;;;;;4.50;3.30;;;9.20;99.90;;;;;;10403231;28;20583;-79
2021/12/28 06:38:07;;;;;;;4.30;3.00;;;9.20;99.90;;;;;;10404634;28;20688;-79
2021/12/28 06:43:09;;;;;;;6.93;3.07;;;9.20;99.90;;;;;;10361683;28;20598;-79
2021/12/28 06:48:11;;;;;;;3.37;3.13;;;9.30;99.90;;;;;;10396045;28;20289;-78
2021/12/28 06:53:16;;;;;;;6.33;5.73;;;9.30;99.90;;;;;;10412458;28;20218;-78
2021/12/28 06:58:18;;;;;;;5.33;2.37;;;9.30;99.90;;;;;;10407305;28;20209;-78
2021/12/28 07:03:20;;;;;;;2.83;2.60;;;9.30;99.90;;;;;;10391866;28;20230;-78
2021/12/28 07:08:23;;;;;;;1.67;1.57;;;9.30;99.90;;;;;;10375478;28;20210;-78
2021/12/28 07:13:25;;;;;;;2.47;2.27;;;9.30;99.90;;;;;;10392282;28;20308;-78
2021/12/28 07:18:28;;;;;;;2.00;1.90;;;9.30;99.90;;;;;;10412387;28;20676;-78
2021/12/28 07:23:32;;;;;;;1.50;1.50;;;9.30;99.90;;;;;;10373353;28;20222;-78
2021/12/28 07:28:34;;;;;;;1.03;0.93;;;9.40;99.90;;;;;;10390835;28;20206;-78
2021/12/28 07:33:36;;;;;;;1.73;1.63;;;9.40;99.90;;;;;;10409639;28;20228;-78
2021/12/28 07:38:40;;;;;;;1.20;1.10;;;9.50;99.90;;;;;;10411834;28;20695;-78
2021/12/28 07:43:42;;;;;;;1.43;1.40;;;9.60;99.90;;;;;;10390371;28;20595;-78
2021/12/28 07:48:44;;;;;;;1.77;1.67;;;9.70;99.90;;;;;;10390391;28;20225;-78
2021/12/28 07:53:48;;;;;;;1.30;1.30;;;9.80;99.90;;;;;;10390491;28;20424;-78
2021/12/28 07:58:50;;;;;;;1.83;1.50;;;9.80;99.90;;;;;;10409640;28;20284;-78
2021/12/28 08:03:52;;;;;;;2.10;1.30;;;9.90;99.90;;;;;;10412071;28;20236;-78
2021/12/28 08:08:56;;;;;;;1.40;1.30;;;10.00;99.90;;;;;;10387172;28;20206;-78
2021/12/28 08:13:58;;;;;;;1.93;1.83;;;10.10;99.90;;;;;;10364132;28;20218;-78
2021/12/28 08:19:02;;;;;;;1.57;1.17;;;10.20;99.90;;;;;;10383921;28;20210;-78
2021/12/28 08:24:06;;;;;;;1.40;1.40;;;10.10;99.90;;;;;;10361503;28;20222;-78
2021/12/28 08:29:08;;;;;;;1.10;1.10;;;10.10;99.90;;;;;;10364788;28;20201;-78
2021/12/28 08:34:10;;;;;;;1.70;1.60;;;10.20;99.90;;;;;;10343236;28;20214;-78
2021/12/28 08:39:14;;;;;;;1.27;1.23;;;10.10;99.90;;;;;;10379594;28;20226;-78
2021/12/28 08:44:16;;;;;;;1.27;1.27;;;10.20;99.90;;;;;;10368074;28;20678;-78
2021/12/28 08:49:18;;;;;;;1.20;1.20;;;10.20;99.90;;;;;;10384599;28;20296;-78
2021/12/28 08:54:22;;;;;;;1.30;1.30;;;10.30;99.90;;;;;;10382500;28;20290;-78
2021/12/28 08:59:24;;;;;;;2.20;0.93;;;10.40;99.90;;;;;;10386165;28;20221;-78
2021/12/28 09:04:26;;;;;;;1.20;1.20;;;10.40;99.90;;;;;;10384221;28;20214;-78
2021/12/28 09:09:30;;;;;;;1.00;1.00;;;10.50;99.90;;;;;;10386596;28;20198;-78
2021/12/28 09:14:33;;;;;;;1.10;1.10;;;10.60;99.90;;;;;;10404981;28;20225;-78
2021/12/28 09:19:36;;;;;;;1.30;1.30;;;10.60;99.90;;;;;;10418462;28;20197;-77
2021/12/28 09:24:40;;;;;;;1.20;1.20;;;10.70;99.90;;;;;;10367594;28;20218;-78
2021/12/28 09:29:43;;;;;;;1.00;1.00;;;10.80;99.90;;;;;;10388113;28;20666;-78
2021/12/28 09:34:47;;;;;;;1.17;1.17;;;10.80;99.90;;;;;;10382689;28;20218;-78
2021/12/28 09:39:51;;;;;;;1.33;1.33;;;10.90;99.90;;;;;;10392166;28;20195;-78
2021/12/28 09:44:53;;;;;;;1.27;1.10;;;11.00;99.90;;;;;;10388510;28;20276;-78
2021/12/28 09:49:55;;;;;;;1.00;1.00;;;11.00;99.90;;;;;;10383010;28;20213;-78
2021/12/28 09:54:59;;;;;;;1.10;1.10;;;11.10;99.90;;;;;;10381201;28;20222;-78
2021/12/28 10:00:01;;;;;;;1.53;1.53;;;11.20;99.90;;;;;;10390726;28;20217;-78
2021/12/28 10:05:08;;;;;;;1.23;1.23;;;11.30;99.90;;;;;;10413403;28;20253;-78
2021/12/28 10:10:12;;;;;;;1.43;1.33;;;11.40;99.90;;;;;;10397884;28;20696;-78
2021/12/28 10:15:20;;;;;;;1.10;1.10;;;11.50;99.90;;;;;;10407530;28;20682;-78
2021/12/28 10:20:25;;;;;;;1.33;1.30;;;11.60;99.90;;;;;;10394606;28;20658;-79
2021/12/28 10:25:33;;;;;;;1.60;1.23;;;11.70;99.90;;;;;;10394934;28;20225;-78
2021/12/28 10:30:40;;;;;;;1.27;1.27;;;11.80;99.90;;;;;;10406976;28;20206;-78
2021/12/28 10:35:46;;;;;;;1.10;1.00;;;11.70;99.90;;;;;;10397609;28;20284;-79
2021/12/28 10:40:54;;;;;;;1.33;1.33;;;11.60;99.90;;;;;;10410054;28;20260;-78
2021/12/28 10:46:01;;;;;;;0.97;0.97;;;11.60;99.90;;;;;;10391472;28;20225;-78
2021/12/28 10:51:07;;;;;;;1.20;1.20;;;11.70;99.90;;;;;;10393391;28;20256;-78
2021/12/28 10:56:11;;;;;;;0.80;0.80;;;11.80;99.90;;;;;;10395900;28;20686;-78
2021/12/28 11:01:21;;;;;;;1.20;1.20;;;11.80;99.90;;;;;;10395564;28;20228;-78
2021/12/28 11:06:27;;;;;;;1.13;1.13;;;11.80;99.90;;;;;;10390690;28;20249;-78
2021/12/28 11:11:31;;;;;;;1.20;1.20;;;11.90;99.90;;;;;;10410405;28;20190;-78
2021/12/28 11:16:33;;;;;;;1.13;1.13;;;11.90;99.90;;;;;;10389750;28;20668;-78
2021/12/28 11:21:37;;;;;;;1.10;1.10;;;11.90;99.90;;;;;;10390430;28;20209;-78
2021/12/28 11:26:43;;;;;;;1.40;1.30;;;12.00;99.90;;;;;;10396345;28;20217;-78
2021/12/28 11:31:50;;;;;;;1.10;1.10;;;12.00;99.90;;;;;;10392044;28;20593;-78
2021/12/28 11:36:54;;;;;;;1.30;1.30;;;12.00;99.90;;;;;;10391272;28;20301;-78
2021/12/28 11:41:59;;;;;;;1.40;1.30;;;12.10;99.90;;;;;;10377558;28;20313;-78
2021/12/28 11:47:02;;;;;;;1.40;1.40;;;12.20;99.90;;;;;;10344676;28;20268;-78
2021/12/28 11:52:11;;;;;;;1.10;1.10;;;12.20;99.90;;;;;;10373909;28;20587;-77
2021/12/28 11:57:18;;;;;;;1.47;1.37;;;12.30;99.90;;;;;;10391622;28;20576;-77
2021/12/28 12:02:20;;;;;;;1.17;1.17;;;12.40;99.90;;;;;;10449755;22;20255;-80
2021/12/28 12:07:37;;;;;;;0.90;0.90;;;12.50;99.90;;;;;;10518056;28;20721;-80
2021/12/28 12:12:54;;;;;;;1.20;1.20;;;12.50;99.90;;;;;;10548349;28;20279;-79
2021/12/28 12:18:01;;;;;;;2.47;2.10;;;12.60;99.90;;;;;;10589519;28;20210;-79
2021/12/28 12:23:18;;;;;;;1.63;1.30;;;12.60;99.90;;;;;;10589175;28;20227;-80
2021/12/28 12:28:30;;;;;;;1.50;1.40;;;12.60;99.90;;;;;;10568031;28;20246;-80
2021/12/28 12:33:39;;;;;;;1.40;1.37;;;12.50;99.90;;;;;;10561030;28;20247;-80
2021/12/28 12:38:42;;;;;;;2.03;1.93;;;12.50;99.90;;;;;;10563086;28;20191;-79
2021/12/28 12:43:49;;;;;;;2.00;1.80;;;12.50;99.90;;;;;;10566452;28;20807;-79
2021/12/28 12:49:23;;;;;;;1.70;1.60;;;12.50;99.90;;;;;;10565786;28;20728;-81
2021/12/28 12:54:28;;;;;;;2.00;1.90;;;12.60;99.90;;;;;;10580026;28;20221;-80
2021/12/28 12:59:39;;;;;;;1.50;1.40;;;12.60;99.90;;;;;;10577861;28;20199;-82
2021/12/28 13:04:53;;;;;;;1.73;1.60;;;12.60;99.90;;;;;;10564443;28;20222;-81
2021/12/28 13:10:07;;;;;;;2.80;1.70;;;12.60;99.90;;;;;;10575654;28;20568;-81
2021/12/28 13:15:12;;;;;;;1.13;1.13;;;12.60;99.90;;;;;;10577821;28;20234;-82
2021/12/28 13:20:17;;;;;;;1.50;1.40;;;12.60;99.90;;;;;;10572441;28;20198;-82
2021/12/28 13:25:28;;;;;;;1.40;1.30;;;12.60;99.90;;;;;;10568137;28;20286;-81
2021/12/28 13:30:34;;;;;;;1.70;1.60;;;12.60;99.90;;;;;;10568992;28;20319;-81
2021/12/28 13:35:39;;;;;;;1.40;1.40;;;12.60;99.90;;;;;;10549909;28;20219;-79
2021/12/28 13:40:44;;;;;;;1.40;1.30;;;12.60;99.90;;;;;;10560726;28;20207;-79
2021/12/28 13:45:51;;;;;;;2.63;2.00;;;12.60;99.90;;;;;;10545247;28;20725;-79
2021/12/28 13:50:57;;;;;;;3.77;1.80;;;12.70;99.90;;;;;;10570462;28;20575;-80
2021/12/28 13:56:01;;;;;;;2.30;1.50;;;12.70;99.90;;;;;;10567051;28;20654;-81
2021/12/28 14:01:11;;;;;;;2.23;1.43;;;12.60;99.90;;;;;;10588551;28;20211;-79
2021/12/28 14:06:14;;;;;;;1.90;1.80;;;12.50;99.90;;;;;;10551888;28;20219;-81
2021/12/28 14:11:30;;;;;;;1.90;1.80;;;12.50;99.90;;;;;;10566727;28;20222;-81
2021/12/28 14:16:50;;;;;;;2.03;1.93;;;12.40;99.90;;;;;;10556473;28;20626;-82
2021/12/28 14:21:52;;;;;;;3.07;1.70;;;12.40;99.90;;;;;;10565101;28;20680;-81
2021/12/28 14:26:55;;;;;;;3.13;1.67;;;12.40;99.90;;;;;;10582977;28;20661;-81
2021/12/28 14:32:00;;;;;;;3.17;1.60;;;12.30;99.90;;;;;;10578860;28;20263;-82
2021/12/28 14:37:05;;;;;;;2.07;1.80;;;12.40;99.90;;;;;;10559419;28;20206;-80
2021/12/28 14:42:09;;;;;;;3.10;2.23;;;12.30;99.90;;;;;;10571679;28;20234;-82
2021/12/28 14:47:18;;;;;;;2.20;2.10;;;12.30;99.90;;;;;;10582630;28;20219;-80
2021/12/28 14:52:24;;;;;;;2.07;1.97;;;12.30;99.90;;;;;;10565347;28;20215;-80
2021/12/28 14:57:28;;;;;;;2.50;2.30;;;12.30;99.90;;;;;;10586379;28;20202;-81
2021/12/28 15:02:31;;;;;;;3.40;2.93;;;12.10;99.90;;;;;;10567263;28;20235;-81
2021/12/28 15:07:33;;;;;;;2.83;2.73;;;12.00;99.90;;;;;;10553893;28;20226;-81
2021/12/28 15:12:37;;;;;;;3.37;3.20;;;11.90;99.90;;;;;;10566379;28;20748;-80
2021/12/28 15:17:41;;;;;;;4.60;4.20;;;11.80;99.90;;;;;;10546178;28;20674;-81
2021/12/28 15:22:43;;;;;;;2.63;2.53;;;11.80;99.90;;;;;;10558803;28;20226;-79
2021/12/28 15:27:47;;;;;;;3.97;3.70;;;11.70;99.90;;;;;;10571155;28;20277;-80
2021/12/28 15:32:51;;;;;;;4.50;4.30;;;11.60;99.90;;;;;;10558865;28;20215;-80
2021/12/28 15:37:59;;;;;;;10.50;4.77;;;11.40;99.90;;;;;;10560664;28;20191;-79
2021/12/28 15:43:02;;;;;;;2.93;2.73;;;11.20;99.90;;;;;;10576552;28;20399;-78
2021/12/28 15:48:06;;;;;;;5.13;4.50;;;10.90;99.90;;;;;;10535778;28;20230;-80
2021/12/28 15:53:08;;;;;;;4.10;3.67;;;10.60;99.90;;;;;;10581194;28;20223;-80
2021/12/28 15:58:10;;;;;;;8.90;4.07;;;10.30;99.90;;;;;;10584443;28;20207;-79
2021/12/28 16:03:14;;;;;;;4.97;4.20;;;10.10;99.90;;;;;;10558875;28;20231;-80
2021/12/28 16:08:16;;;;;;;5.70;3.50;;;10.00;99.90;;;;;;10567792;28;20226;-80
2021/12/28 16:13:21;;;;;;;9.50;4.87;;;9.90;99.90;;;;;;10562576;28;20306;-81
2021/12/28 16:18:25;;;;;;;5.13;3.63;;;9.90;99.90;;;;;;10576861;28;20561;-79
2021/12/28 16:23:27;;;;;;;9.53;4.30;;;9.80;99.90;;;;;;10583049;28;20221;-80
2021/12/28 16:28:29;;;;;;;5.90;4.00;;;9.80;99.90;;;;;;10585723;28;20753;-79
2021/12/28 16:33:34;;;;;;;4.60;4.20;;;9.70;99.90;;;;;;10558743;28;20670;-79
2021/12/28 16:38:38;;;;;;;4.50;4.20;;;9.60;99.90;;;;;;10555678;28;20210;-79
2021/12/28 16:43:41;;;;;;;3.87;3.67;;;9.50;99.90;;;;;;10559489;28;20239;-79
2021/12/28 16:48:45;;;;;;;3.80;3.47;;;9.40;99.90;;;;;;10575636;28;20307;-81
2021/12/28 16:53:47;;;;;;;2.50;2.40;;;9.30;99.90;;;;;;10564206;28;20218;-81
2021/12/28 16:58:50;;;;;;;2.37;2.17;;;9.20;99.90;;;;;;10541663;28;20635;-80
2021/12/28 17:03:54;;;;;;;2.60;2.30;;;9.10;99.90;;;;;;10554415;28;20227;-80
2021/12/28 17:08:58;;;;;;;4.00;2.07;;;9.10;99.90;;;;;;10533986;28;20291;-80
2021/12/28 17:14:00;;;;;;;1.90;1.80;;;9.00;99.90;;;;;;10552834;28;20216;-80
2021/12/28 17:19:04;;;;;;;1.50;1.30;;;9.10;99.90;;;;;;10544102;28;20226;-80
2021/12/28 17:24:06;;;;;;;2.00;1.73;;;9.10;99.90;;;;;;10545634;28;20256;-80
2021/12/28 17:29:11;;;;;;;2.27;2.13;;;9.10;99.90;;;;;;10536585;28;20219;-80
2021/12/28 17:34:14;;;;;;;4.00;2.10;;;9.20;99.90;;;;;;10545575;28;20306;-79
2021/12/28 17:39:17;;;;;;;1.87;1.70;;;9.20;99.90;;;;;;10570892;28;20302;-80
2021/12/28 17:44:19;;;;;;;3.63;1.80;;;9.20;99.90;;;;;;10535480;28;20215;-80
2021/12/28 17:49:22;;;;;;;4.07;2.40;;;9.30;99.90;;;;;;10535622;28;20219;-81
2021/12/28 17:54:24;;;;;;;2.67;2.07;;;9.30;99.90;;;;;;10550351;28;20219;-81
2021/12/28 17:59:27;;;;;;;7.50;2.93;;;9.40;99.90;;;;;;10518263;28;20196;-80
2021/12/28 18:04:30;;;;;;;6.83;2.90;;;9.40;99.90;;;;;;10522003;28;20594;-80
2021/12/28 18:09:32;;;;;;;2.70;2.13;;;9.40;99.90;;;;;;10559956;28;20219;-81
2021/12/28 18:14:35;;;;;;;6.83;2.70;;;9.40;99.90;;;;;;10524388;28;20211;-81
2021/12/28 18:19:38;;;;;;;7.33;2.80;;;9.50;99.90;;;;;;10527857;28;20192;-81
2021/12/28 18:24:40;;;;;;;6.57;2.60;;;9.50;99.90;;;;;;10536894;28;20216;-81
2021/12/28 18:29:44;;;;;;;6.93;2.93;;;9.60;99.90;;;;;;10550754;28;20207;-81
2021/12/28 18:34:47;;;;;;;5.70;2.73;;;9.60;99.90;;;;;;10530896;28;20220;-81
2021/12/28 18:39:49;;;;;;;6.23;3.20;;;9.60;99.90;;;;;;10524084;28;20199;-80
2021/12/28 18:44:52;;;;;;;3.67;3.37;;;9.50;99.90;;;;;;10533140;28;20226;-81
2021/12/28 18:50:01;;;;;;;5.07;2.57;;;9.40;99.90;;;;;;10529750;28;20208;-81
2021/12/28 18:55:04;;;;;;;5.77;5.27;;;9.20;99.90;;;;;;10560965;28;20219;-82
2021/12/28 19:00:11;;;;;;;4.33;3.93;;;9.10;99.90;;;;;;10571211;28;20279;-81
2021/12/28 19:05:14;;;;;;;6.57;4.90;;;8.90;99.90;;;;;;10555371;28;20722;-81
2021/12/28 19:10:20;;;;;;;5.10;4.43;;;8.80;99.90;;;;;;10545564;28;20282;-83
2021/12/28 19:15:48;;;;;;;5.90;5.50;;;8.80;99.90;;;;;;10555150;28;20199;-85
2021/12/28 19:20:54;;;;;;;6.70;6.13;;;8.90;99.90;;;;;;10568138;28;20212;-82
2021/12/28 19:26:17;;;;;;;9.53;6.77;;;8.90;99.90;;;;;;10578978;28;20230;-84
2021/12/28 19:31:20;;;;;;;5.90;5.50;;;8.90;99.90;;;;;;10525278;28;20683;-81
2021/12/28 19:36:25;;;;;;;6.50;5.80;;;8.80;99.90;;;;;;10532537;28;20309;-82
2021/12/28 19:41:27;;;;;;;6.50;6.00;;;8.80;99.90;;;;;;10532581;28;20203;-84
2021/12/28 19:46:29;;;;;;;10.30;7.37;;;8.80;99.90;;;;;;10561531;28;20230;-82
2021/12/28 19:51:33;;;;;;;5.63;3.50;;;8.80;99.90;;;;;;10534571;28;20302;-80
2021/12/28 19:57:33;;;;;;;4.83;4.50;;;8.90;99.90;;;;;;10522926;28;20278;-80
2021/12/28 20:15:10;;;;;;;3.00;2.80;;;9.10;99.90;;;;;;10166792;28;20378;-83
2021/12/28 20:34:00;;;;;;;3.97;3.43;;;9.20;99.90;;;;;;10552048;28;20254;-82
2021/12/28 20:39:03;;;;;;;7.73;3.30;;;9.40;99.90;;;;;;10520274;28;20294;-82
2021/12/28 20:44:47;;;;;;;8.73;3.80;;;9.40;99.90;;;;;;10551619;28;20298;-83
2021/12/28 20:50:01;;;;;;;5.70;3.53;;;9.50;99.90;;;;;;10386991;28;20305;-82
2021/12/28 20:55:05;;;;;;;5.77;3.87;;;9.60;99.90;;;;;;10383550;28;20222;-82
2021/12/28 21:00:30;;;;;;;5.70;4.40;;;9.60;99.90;;;;;;10454410;28;20204;-83
2021/12/28 21:12:30;;;;;;;6.20;3.57;;;9.70;99.90;;;;;;10464850;28;20304;-82
2021/12/28 21:17:34;;;;;;;8.33;3.87;;;9.80;99.90;;;;;;10505082;28;20573;-80
2021/12/28 21:36:37;;;;;;;6.50;3.90;;;9.90;99.90;;;;;;10260789;28;20298;-80
2021/12/28 21:47:14;;;;;;;8.73;3.70;;;10.00;99.90;;;;;;10537851;28;20222;-81
2021/12/28 21:52:37;;;;;;;14.77;4.67;;;10.10;99.90;;;;;;10546302;28;20212;-81
2021/12/28 21:57:39;;;;;;;8.13;3.80;;;10.10;99.90;;;;;;10537722;28;20188;-82
2021/12/28 22:15:15;;;;;;;5.73;2.93;;;10.00;99.90;;;;;;10366887;28;20229;-82
2021/12/28 22:26:45;;;;;;;7.20;3.60;;;10.00;99.90;;;;;;10276335;28;20229;-82
2021/12/28 22:31:49;;;;;;;6.80;3.37;;;10.00;99.90;;;;;;10388977;28;20202;-80
2021/12/28 22:36:52;;;;;;;6.80;3.10;;;10.00;99.90;;;;;;10538865;28;20196;-80
2021/12/28 22:41:54;;;;;;;6.30;3.07;;;10.00;99.90;;;;;;10552571;28;20903;-80
2021/12/28 22:46:58;;;;;;;4.77;3.20;;;10.10;99.90;;;;;;10546867;28;20204;-80
2021/12/28 22:52:00;;;;;;;6.83;3.47;;;10.10;99.90;;;;;;10536895;28;20206;-80
2021/12/28 22:57:03;;;;;;;8.60;3.30;;;10.10;99.90;;;;;;10579934;28;20191;-82
2021/12/28 23:02:06;;;;;;;8.10;3.30;;;10.20;99.90;;;;;;10547979;28;20201;-83
2021/12/28 23:07:08;;;;;;;11.00;3.50;;;10.20;99.90;;;;;;10540295;28;20683;-82
2021/12/28 23:12:10;;;;;;;4.40;3.30;;;10.20;99.90;;;;;;10564415;28;20713;-82
2021/12/28 23:17:16;;;;;;;5.87;2.60;;;10.20;99.90;;;;;;10561165;28;20203;-81
2021/12/28 23:22:18;;;;;;;5.37;2.90;;;10.30;99.90;;;;;;10531391;28;20223;-81
2021/12/28 23:27:20;;;;;;;6.27;3.03;;;10.30;99.90;;;;;;10540903;28;20211;-81
2021/12/28 23:32:30;;;;;;;7.07;2.73;;;10.30;99.90;;;;;;10545750;28;20330;-81
2021/12/28 23:37:32;;;;;;;6.50;2.73;;;10.30;99.90;;;;;;10551008;28;20195;-84
2021/12/28 23:42:36;;;;;;;3.53;2.40;;;10.40;99.90;;;;;;10519314;28;20664;-82
2021/12/28 23:47:40;;;;;;;4.50;2.50;;;10.40;99.90;;;;;;10564949;28;20246;-82
2021/12/28 23:52:42;;;;;;;4.70;3.07;;;10.40;99.90;;;;;;10551070;28;20758;-83
2021/12/28 23:57:45;;;;;;;4.80;2.70;;;10.50;99.90;;;;;;10528218;28;20199;-83
